sensor_id;sensor_type;location;lat;lon;timestamp;temperature;humidity
17033;DHT22;63208;52.178;21.016;2022-12-16T02:49:48;-2.50;99.90
17033;DHT22;63208;52.178;21.016;2022-12-16T02:52:16;-2.50;99.90
17033;DHT22;63208;52.178;21.016;2022-12-16T02:54:44;-2.50;99.90
17033;DHT22;63208;52.178;21.016;2022-12-16T02:57:16;-2.50;99.90
17033;DHT22;63208;52.178;21.016;2022-12-16T02:59:46;-1.20;99.90
17033;DHT22;63208;52.178;21.016;2022-12-16T03:02:18;-2.50;99.90
17033;DHT22;63208;52.178;21.016;2022-12-16T03:04:48;-2.50;99.90
17033;DHT22;63208;52.178;21.016;2022-12-16T03:07:17;-2.50;99.90
17033;DHT22;63208;52.178;21.016;2022-12-16T03:09:46;-2.50;99.90
17033;DHT22;63208;52.178;21.016;2022-12-16T03:12:14;-2.50;99.90
17033;DHT22;63208;52.178;21.016;2022-12-16T03:14:42;-2.60;99.90
17033;DHT22;63208;52.178;21.016;2022-12-16T03:17:10;-2.50;99.90
17033;DHT22;63208;52.178;21.016;2022-12-16T03:19:39;-2.50;99.90
17033;DHT22;63208;52.178;21.016;2022-12-16T03:22:09;-2.50;99.90
17033;DHT22;63208;52.178;21.016;2022-12-16T03:24:37;-2.50;99.90
17033;DHT22;63208;52.178;21.016;2022-12-16T03:27:06;-2.50;99.90
17033;DHT22;63208;52.178;21.016;2022-12-16T03:29:35;-2.30;99.90
17033;DHT22;63208;52.178;21.016;2022-12-16T03:32:06;-2.50;99.90
17033;DHT22;63208;52.178;21.016;2022-12-16T03:34:35;-2.50;99.90
17033;DHT22;63208;52.178;21.016;2022-12-16T03:37:05;-2.60;99.90
17033;DHT22;63208;52.178;21.016;2022-12-16T03:39:35;-2.60;99.90
17033;DHT22;63208;52.178;21.016;2022-12-16T03:42:04;-2.60;99.90
17033;DHT22;63208;52.178;21.016;2022-12-16T03:44:31;-2.50;99.90
17033;DHT22;63208;52.178;21.016;2022-12-16T03:47:00;-2.50;99.90
17033;DHT22;63208;52.178;21.016;2022-12-16T03:49:27;-1.10;99.90
17033;DHT22;63208;52.178;21.016;2022-12-16T03:51:54;-2.00;99.90
17033;DHT22;63208;52.178;21.016;2022-12-16T03:54:21;-2.50;99.90
17033;DHT22;63208;52.178;21.016;2022-12-16T03:56:51;-4.20;99.90
17033;DHT22;63208;52.178;21.016;2022-12-16T03:59:18;-1.50;99.90
17033;DHT22;63208;52.178;21.016;2022-12-16T04:01:45;-2.10;99.90
17033;DHT22;63208;52.178;21.016;2022-12-16T04:04:12;-2.60;99.90
17033;DHT22;63208;52.178;21.016;2022-12-16T04:06:39;-1.40;99.90
17033;DHT22;63208;52.178;21.016;2022-12-16T04:12:10;-3.70;99.90
17033;DHT22;63208;52.178;21.016;2022-12-16T04:14:54;-2.50;99.90
17033;DHT22;63208;52.178;21.016;2022-12-16T04:17:38;-2.60;99.90
17033;DHT22;63208;52.178;21.016;2022-12-16T04:20:23;-2.00;99.90
17033;DHT22;63208;52.178;21.016;2022-12-16T04:23:11;-1.60;99.90
17033;DHT22;63208;52.178;21.016;2022-12-16T04:25:57;-2.60;99.90
17033;DHT22;63208;52.178;21.016;2022-12-16T04:28:25;-1.90;99.90
17033;DHT22;63208;52.178;21.016;2022-12-16T04:30:54;-2.60;99.90
17033;DHT22;63208;52.178;21.016;2022-12-16T04:33:27;-2.60;99.90
17033;DHT22;63208;52.178;21.016;2022-12-16T04:36:11;-2.60;99.90
17033;DHT22;63208;52.178;21.016;2022-12-16T04:38:58;-1.30;99.90
17033;DHT22;63208;52.178;21.016;2022-12-16T04:41:51;-2.50;99.90
17033;DHT22;63208;52.178;21.016;2022-12-16T04:44:36;-1.30;99.90
17033;DHT22;63208;52.178;21.016;2022-12-16T04:47:21;-2.50;99.90
17033;DHT22;63208;52.178;21.016;2022-12-16T04:50:05;-2.50;99.90
17033;DHT22;63208;52.178;21.016;2022-12-16T04:52:50;-2.60;99.90
17033;DHT22;63208;52.178;21.016;2022-12-16T04:55:34;-2.70;99.90
17033;DHT22;63208;52.178;21.016;2022-12-16T04:58:18;-2.80;99.90
17033;DHT22;63208;52.178;21.016;2022-12-16T05:01:04;-3.40;99.90
17033;DHT22;63208;52.178;21.016;2022-12-16T05:03:48;-2.80;99.90
17033;DHT22;63208;52.178;21.016;2022-12-16T05:06:32;-1.30;99.90
17033;DHT22;63208;52.178;21.016;2022-12-16T05:09:16;-2.50;99.90
17033;DHT22;63208;52.178;21.016;2022-12-16T05:12:01;-2.70;99.90
17033;DHT22;63208;52.178;21.016;2022-12-16T05:14:45;-1.80;99.90
17033;DHT22;63208;52.178;21.016;2022-12-16T05:17:31;-2.80;99.90
17033;DHT22;63208;52.178;21.016;2022-12-16T05:20:15;-1.60;99.90
17033;DHT22;63208;52.178;21.016;2022-12-16T05:24:17;-2.80;99.90
17033;DHT22;63208;52.178;21.016;2022-12-16T05:26:04;-1.70;99.90
17033;DHT22;63208;52.178;21.016;2022-12-16T05:28:48;-2.00;99.90
17033;DHT22;63208;52.178;21.016;2022-12-16T05:31:32;-2.80;99.90
17033;DHT22;63208;52.178;21.016;2022-12-16T05:40:20;-2.60;99.90
17033;DHT22;63208;52.178;21.016;2022-12-16T05:43:04;-2.60;99.90
17033;DHT22;63208;52.178;21.016;2022-12-16T05:45:48;-2.10;99.90
17033;DHT22;63208;52.178;21.016;2022-12-16T05:48:32;-2.50;99.90
17033;DHT22;63208;52.178;21.016;2022-12-16T05:51:17;-2.50;99.90
17033;DHT22;63208;52.178;21.016;2022-12-16T05:54:01;-2.50;99.90
17033;DHT22;63208;52.178;21.016;2022-12-16T05:56:46;-2.60;99.90
17033;DHT22;63208;52.178;21.016;2022-12-16T05:59:31;-2.30;99.90
17033;DHT22;63208;52.178;21.016;2022-12-16T06:02:15;-2.70;99.90
17033;DHT22;63208;52.178;21.016;2022-12-16T06:04:59;-2.80;99.90
17033;DHT22;63208;52.178;21.016;2022-12-16T06:07:49;-2.70;99.90
17033;DHT22;63208;52.178;21.016;2022-12-16T06:10:33;-2.80;99.90
17033;DHT22;63208;52.178;21.016;2022-12-16T06:13:18;-2.90;99.90
17033;DHT22;63208;52.178;21.016;2022-12-16T06:16:06;-2.80;99.90
17033;DHT22;63208;52.178;21.016;2022-12-16T06:18:57;-2.80;99.90
17033;DHT22;63208;52.178;21.016;2022-12-16T06:21:41;-2.80;99.90
17033;DHT22;63208;52.178;21.016;2022-12-16T06:24:25;-1.70;99.90
17033;DHT22;63208;52.178;21.016;2022-12-16T06:27:33;-2.40;99.90
17033;DHT22;63208;52.178;21.016;2022-12-16T06:30:18;-2.90;99.90
17033;DHT22;63208;52.178;21.016;2022-12-16T06:33:03;-2.80;99.90
17033;DHT22;63208;52.178;21.016;2022-12-16T06:38:22;-2.80;99.90
17033;DHT22;63208;52.178;21.016;2022-12-16T06:41:06;-2.90;99.90
17033;DHT22;63208;52.178;21.016;2022-12-16T06:46:55;-4.10;99.90
17033;DHT22;63208;52.178;21.016;2022-12-16T06:49:54;-3.00;99.90
17033;DHT22;63208;52.178;21.016;2022-12-16T06:52:39;-3.00;99.90
17033;DHT22;63208;52.178;21.016;2022-12-16T06:58:31;-3.00;99.90
17033;DHT22;63208;52.178;21.016;2022-12-16T07:01:15;-3.00;99.90
17033;DHT22;63208;52.178;21.016;2022-12-16T07:04:01;-2.90;99.90
17033;DHT22;63208;52.178;21.016;2022-12-16T07:06:45;-2.90;99.90
17033;DHT22;63208;52.178;21.016;2022-12-16T07:09:29;-3.00;99.90
17033;DHT22;63208;52.178;21.016;2022-12-16T07:12:13;-1.80;99.90
17033;DHT22;63208;52.178;21.016;2022-12-16T07:17:57;-2.90;99.90
17033;DHT22;63208;52.178;21.016;2022-12-16T07:20:42;-2.60;99.90
17033;DHT22;63208;52.178;21.016;2022-12-16T07:23:26;-2.90;99.90
17033;DHT22;63208;52.178;21.016;2022-12-16T07:26:11;-2.70;99.90
17033;DHT22;63208;52.178;21.016;2022-12-16T07:29:13;-2.70;99.90
17033;DHT22;63208;52.178;21.016;2022-12-16T07:31:57;-2.80;99.90
17033;DHT22;63208;52.178;21.016;2022-12-16T07:34:41;-2.80;99.90
17033;DHT22;63208;52.178;21.016;2022-12-16T07:37:27;-2.60;99.90
17033;DHT22;63208;52.178;21.016;2022-12-16T07:40:11;-2.80;99.90
17033;DHT22;63208;52.178;21.016;2022-12-16T07:45:51;-2.90;99.90
17033;DHT22;63208;52.178;21.016;2022-12-16T07:48:35;-2.90;99.90
17033;DHT22;63208;52.178;21.016;2022-12-16T07:51:19;-2.70;99.90
17033;DHT22;63208;52.178;21.016;2022-12-16T08:09:16;-2.80;99.90
17033;DHT22;63208;52.178;21.016;2022-12-16T08:12:01;-2.20;99.90
17033;DHT22;63208;52.178;21.016;2022-12-16T08:14:47;-2.70;99.90
17033;DHT22;63208;52.178;21.016;2022-12-16T08:17:31;-2.80;99.90
17033;DHT22;63208;52.178;21.016;2022-12-16T08:20:15;-2.80;99.90
17033;DHT22;63208;52.178;21.016;2022-12-16T08:22:59;-2.90;99.90
17033;DHT22;63208;52.178;21.016;2022-12-16T08:25:44;-2.80;99.90
17033;DHT22;63208;52.178;21.016;2022-12-16T08:28:29;-2.60;99.90
17033;DHT22;63208;52.178;21.016;2022-12-16T08:31:13;-2.50;99.90
17033;DHT22;63208;52.178;21.016;2022-12-16T08:33:57;-2.60;99.90
17033;DHT22;63208;52.178;21.016;2022-12-16T08:36:41;-2.60;99.90
17033;DHT22;63208;52.178;21.016;2022-12-16T08:39:26;-2.70;99.90
17033;DHT22;63208;52.178;21.016;2022-12-16T08:42:11;-2.60;99.90
17033;DHT22;63208;52.178;21.016;2022-12-16T08:44:56;-2.00;99.90
17033;DHT22;63208;52.178;21.016;2022-12-16T08:47:40;-2.70;99.90
17033;DHT22;63208;52.178;21.016;2022-12-16T08:50:24;-2.20;99.90
17033;DHT22;63208;52.178;21.016;2022-12-16T08:53:14;-2.60;99.90
17033;DHT22;63208;52.178;21.016;2022-12-16T08:55:58;-1.60;99.90
17033;DHT22;63208;52.178;21.016;2022-12-16T08:58:43;-2.50;99.90
17033;DHT22;63208;52.178;21.016;2022-12-16T09:01:28;-2.60;99.90
17033;DHT22;63208;52.178;21.016;2022-12-16T09:04:12;-2.50;99.90
17033;DHT22;63208;52.178;21.016;2022-12-16T09:06:56;-2.50;99.90
17033;DHT22;63208;52.178;21.016;2022-12-16T09:09:40;-2.50;99.90
17033;DHT22;63208;52.178;21.016;2022-12-16T09:12:24;-2.40;99.90
17033;DHT22;63208;52.178;21.016;2022-12-16T09:15:18;-2.50;99.90
17033;DHT22;63208;52.178;21.016;2022-12-16T09:18:03;-2.50;99.90
17033;DHT22;63208;52.178;21.016;2022-12-16T09:33:33;-2.60;99.90
17033;DHT22;63208;52.178;21.016;2022-12-16T09:36:17;-3.80;99.90
17033;DHT22;63208;52.178;21.016;2022-12-16T09:39:01;-2.30;99.90
17033;DHT22;63208;52.178;21.016;2022-12-16T09:41:50;-2.50;99.90
17033;DHT22;63208;52.178;21.016;2022-12-16T09:48:00;-2.30;99.90
17033;DHT22;63208;52.178;21.016;2022-12-16T09:50:48;-2.40;99.90
17033;DHT22;63208;52.178;21.016;2022-12-16T09:53:35;-2.20;99.90
17033;DHT22;63208;52.178;21.016;2022-12-16T09:56:22;-2.00;99.90
17033;DHT22;63208;52.178;21.016;2022-12-16T09:59:09;-2.30;99.90
17033;DHT22;63208;52.178;21.016;2022-12-16T10:01:55;-2.00;99.90
17033;DHT22;63208;52.178;21.016;2022-12-16T10:04:57;-2.10;99.90
17033;DHT22;63208;52.178;21.016;2022-12-16T10:07:44;-2.10;99.90
17033;DHT22;63208;52.178;21.016;2022-12-16T10:10:31;-2.10;99.90
17033;DHT22;63208;52.178;21.016;2022-12-16T10:13:16;-1.90;99.90
17033;DHT22;63208;52.178;21.016;2022-12-16T10:16:04;-1.90;99.90
17033;DHT22;63208;52.178;21.016;2022-12-16T10:18:55;-1.90;99.90
17033;DHT22;63208;52.178;21.016;2022-12-16T10:21:43;-1.90;99.90
17033;DHT22;63208;52.178;21.016;2022-12-16T10:24:33;-1.90;99.90
17033;DHT22;63208;52.178;21.016;2022-12-16T10:27:29;-1.90;99.90
17033;DHT22;63208;52.178;21.016;2022-12-16T10:30:15;-1.90;99.90
17033;DHT22;63208;52.178;21.016;2022-12-16T10:32:59;-1.80;99.90
17033;DHT22;63208;52.178;21.016;2022-12-16T10:35:46;-1.80;99.90
17033;DHT22;63208;52.178;21.016;2022-12-16T10:38:32;-1.80;99.90
17033;DHT22;63208;52.178;21.016;2022-12-16T10:41:20;-1.80;99.90
17033;DHT22;63208;52.178;21.016;2022-12-16T10:44:05;-1.70;99.90
17033;DHT22;63208;52.178;21.016;2022-12-16T10:46:52;-1.80;99.90
17033;DHT22;63208;52.178;21.016;2022-12-16T10:49:36;-1.80;99.90
17033;DHT22;63208;52.178;21.016;2022-12-16T10:52:21;-1.20;99.90
17033;DHT22;63208;52.178;21.016;2022-12-16T10:55:03;-1.80;99.90
17033;DHT22;63208;52.178;21.016;2022-12-16T10:57:55;-1.80;99.90
17033;DHT22;63208;52.178;21.016;2022-12-16T11:00:43;-1.80;99.90
17033;DHT22;63208;52.178;21.016;2022-12-16T11:03:28;-1.70;99.90
17033;DHT22;63208;52.178;21.016;2022-12-16T11:06:14;-1.70;99.90
17033;DHT22;63208;52.178;21.016;2022-12-16T11:09:11;-1.60;99.90
17033;DHT22;63208;52.178;21.016;2022-12-16T11:12:05;-1.70;99.90
17033;DHT22;63208;52.178;21.016;2022-12-16T11:14:57;-1.70;99.90
17033;DHT22;63208;52.178;21.016;2022-12-16T11:17:41;-1.70;99.90
17033;DHT22;63208;52.178;21.016;2022-12-16T11:30:19;-2.50;99.90
17033;DHT22;63208;52.178;21.016;2022-12-16T11:33:05;-1.60;99.90
17033;DHT22;63208;52.178;21.016;2022-12-16T11:35:53;-1.50;99.90
17033;DHT22;63208;52.178;21.016;2022-12-16T11:38:39;-1.40;99.90
17033;DHT22;63208;52.178;21.016;2022-12-16T11:41:25;-0.60;99.90
17033;DHT22;63208;52.178;21.016;2022-12-16T11:44:15;-1.40;99.90
17033;DHT22;63208;52.178;21.016;2022-12-16T11:47:01;-0.70;99.90
17033;DHT22;63208;52.178;21.016;2022-12-16T11:49:47;-1.20;99.90
17033;DHT22;63208;52.178;21.016;2022-12-16T11:52:32;-1.50;99.90
17033;DHT22;63208;52.178;21.016;2022-12-16T11:55:18;-1.50;99.90
17033;DHT22;63208;52.178;21.016;2022-12-16T11:58:05;-1.50;99.90
17033;DHT22;63208;52.178;21.016;2022-12-16T12:01:08;-1.30;99.90
17033;DHT22;63208;52.178;21.016;2022-12-16T12:03:55;-1.40;99.90
17033;DHT22;63208;52.178;21.016;2022-12-16T12:06:45;-1.30;99.90
17033;DHT22;63208;52.178;21.016;2022-12-16T12:09:32;-1.30;99.90
17033;DHT22;63208;52.178;21.016;2022-12-16T12:12:22;-0.70;99.90
17033;DHT22;63208;52.178;21.016;2022-12-16T12:15:10;-1.40;99.90
17033;DHT22;63208;52.178;21.016;2022-12-16T12:18:04;-1.40;99.90
17033;DHT22;63208;52.178;21.016;2022-12-16T12:20:54;-1.40;99.90
17033;DHT22;63208;52.178;21.016;2022-12-16T12:23:42;-1.40;99.90
17033;DHT22;63208;52.178;21.016;2022-12-16T12:26:31;-1.60;99.90
17033;DHT22;63208;52.178;21.016;2022-12-16T12:29:17;-1.30;99.90
17033;DHT22;63208;52.178;21.016;2022-12-16T12:32:05;-1.30;99.90
17033;DHT22;63208;52.178;21.016;2022-12-16T12:34:54;-1.20;99.90
17033;DHT22;63208;52.178;21.016;2022-12-16T12:37:41;-1.10;99.90
17033;DHT22;63208;52.178;21.016;2022-12-16T12:40:49;-1.00;99.90
17033;DHT22;63208;52.178;21.016;2022-12-16T12:43:43;0.00;99.90
17033;DHT22;63208;52.178;21.016;2022-12-16T12:46:32;0.10;99.90
17033;DHT22;63208;52.178;21.016;2022-12-16T12:49:21;-0.10;99.90
17033;DHT22;63208;52.178;21.016;2022-12-16T12:52:09;-1.20;99.90
17033;DHT22;63208;52.178;21.016;2022-12-16T12:54:59;-1.20;99.90
17033;DHT22;63208;52.178;21.016;2022-12-16T12:57:44;-1.20;99.90
17033;DHT22;63208;52.178;21.016;2022-12-16T13:00:30;-1.10;99.90
17033;DHT22;63208;52.178;21.016;2022-12-16T13:03:17;-1.20;99.90
17033;DHT22;63208;52.178;21.016;2022-12-16T13:06:05;-1.10;99.90
17033;DHT22;63208;52.178;21.016;2022-12-16T13:08:54;-1.10;99.90
17033;DHT22;63208;52.178;21.016;2022-12-16T13:11:41;-1.20;99.90
17033;DHT22;63208;52.178;21.016;2022-12-16T13:14:51;-0.80;99.90
17033;DHT22;63208;52.178;21.016;2022-12-16T13:20:43;-1.20;99.90
17033;DHT22;63208;52.178;21.016;2022-12-16T13:23:28;-1.20;99.90
17033;DHT22;63208;52.178;21.016;2022-12-16T13:26:13;-1.20;99.90
17033;DHT22;63208;52.178;21.016;2022-12-16T13:29:05;-1.20;99.90
17033;DHT22;63208;52.178;21.016;2022-12-16T13:31:58;-1.20;99.90
17033;DHT22;63208;52.178;21.016;2022-12-16T13:34:42;-1.30;99.90
17033;DHT22;63208;52.178;21.016;2022-12-16T13:37:27;-1.30;99.90
17033;DHT22;63208;52.178;21.016;2022-12-16T13:40:12;-1.30;99.90
17033;DHT22;63208;52.178;21.016;2022-12-16T13:42:59;-1.40;99.90
17033;DHT22;63208;52.178;21.016;2022-12-16T13:46:11;-1.30;99.90
17033;DHT22;63208;52.178;21.016;2022-12-16T13:48:48;-1.40;99.90
17033;DHT22;63208;52.178;21.016;2022-12-16T13:51:55;-1.40;99.90
17033;DHT22;63208;52.178;21.016;2022-12-16T13:54:39;-1.40;99.90
17033;DHT22;63208;52.178;21.016;2022-12-16T13:57:24;-1.40;99.90
17033;DHT22;63208;52.178;21.016;2022-12-16T14:00:15;-1.40;99.90
17033;DHT22;63208;52.178;21.016;2022-12-16T14:03:01;-1.40;99.90
17033;DHT22;63208;52.178;21.016;2022-12-16T14:05:42;-1.40;99.90
17033;DHT22;63208;52.178;21.016;2022-12-16T14:08:27;-1.40;99.90
17033;DHT22;63208;52.178;21.016;2022-12-16T14:14:50;-1.50;99.90
17033;DHT22;63208;52.178;21.016;2022-12-16T14:17:36;0.30;99.90
17033;DHT22;63208;52.178;21.016;2022-12-16T14:20:38;-1.40;99.90
17033;DHT22;63208;52.178;21.016;2022-12-16T14:23:27;-1.50;99.90
17033;DHT22;63208;52.178;21.016;2022-12-16T14:26:12;-1.40;99.90
17033;DHT22;63208;52.178;21.016;2022-12-16T14:28:57;-1.50;99.90
17033;DHT22;63208;52.178;21.016;2022-12-16T14:31:41;-1.60;99.90
17033;DHT22;63208;52.178;21.016;2022-12-16T14:34:27;-1.60;99.90
17033;DHT22;63208;52.178;21.016;2022-12-16T14:37:13;-1.60;99.90
17033;DHT22;63208;52.178;21.016;2022-12-16T14:39:57;-1.50;99.90
17033;DHT22;63208;52.178;21.016;2022-12-16T14:42:41;-1.60;99.90
17033;DHT22;63208;52.178;21.016;2022-12-16T14:45:29;-1.50;99.90
17033;DHT22;63208;52.178;21.016;2022-12-16T14:48:18;-1.60;99.90
17033;DHT22;63208;52.178;21.016;2022-12-16T14:51:14;-1.50;99.90
17033;DHT22;63208;52.178;21.016;2022-12-16T14:54:10;-1.50;99.90
17033;DHT22;63208;52.178;21.016;2022-12-16T14:56:58;-1.60;99.90
17033;DHT22;63208;52.178;21.016;2022-12-16T14:59:43;-1.50;99.90
17033;DHT22;63208;52.178;21.016;2022-12-16T15:02:28;-1.60;99.90
17033;DHT22;63208;52.178;21.016;2022-12-16T15:05:15;-1.50;99.90
17033;DHT22;63208;52.178;21.016;2022-12-16T15:23:17;-2.20;99.90
17033;DHT22;63208;52.178;21.016;2022-12-16T15:26:02;-1.00;99.90
17033;DHT22;63208;52.178;21.016;2022-12-16T15:28:46;-1.40;99.90
17033;DHT22;63208;52.178;21.016;2022-12-16T15:31:31;-1.50;99.90
17033;DHT22;63208;52.178;21.016;2022-12-16T15:36:59;-0.90;99.90
17033;DHT22;63208;52.178;21.016;2022-12-16T15:39:45;-1.50;99.90
17033;DHT22;63208;52.178;21.016;2022-12-16T15:42:29;-1.50;99.90
17033;DHT22;63208;52.178;21.016;2022-12-16T15:46:33;-1.40;99.90
17033;DHT22;63208;52.178;21.016;2022-12-16T15:48:20;-1.50;99.90
17033;DHT22;63208;52.178;21.016;2022-12-16T15:51:18;-1.60;99.90
17033;DHT22;63208;52.178;21.016;2022-12-16T15:54:03;-1.10;99.90
17033;DHT22;63208;52.178;21.016;2022-12-16T15:56:48;-1.60;99.90
17033;DHT22;63208;52.178;21.016;2022-12-16T15:59:34;-1.70;99.90
17033;DHT22;63208;52.178;21.016;2022-12-16T16:02:32;-1.60;99.90
17033;DHT22;63208;52.178;21.016;2022-12-16T16:05:17;-1.60;99.90
17033;DHT22;63208;52.178;21.016;2022-12-16T16:08:02;-1.70;99.90
17033;DHT22;63208;52.178;21.016;2022-12-16T16:10:46;-1.70;99.90
17033;DHT22;63208;52.178;21.016;2022-12-16T16:25:57;-3.00;99.90
17033;DHT22;63208;52.178;21.016;2022-12-16T16:28:41;-1.80;99.90
17033;DHT22;63208;52.178;21.016;2022-12-16T16:31:25;-1.70;99.90
17033;DHT22;63208;52.178;21.016;2022-12-16T16:34:09;-1.70;99.90
17033;DHT22;63208;52.178;21.016;2022-12-16T16:36:54;-1.20;99.90
17033;DHT22;63208;52.178;21.016;2022-12-16T16:39:39;-1.60;99.90
17033;DHT22;63208;52.178;21.016;2022-12-16T16:42:25;-1.70;99.90
17033;DHT22;63208;52.178;21.016;2022-12-16T16:45:09;-1.70;99.90
17033;DHT22;63208;52.178;21.016;2022-12-16T16:47:54;-1.70;99.90
17033;DHT22;63208;52.178;21.016;2022-12-16T16:51:07;-1.70;99.90
17033;DHT22;63208;52.178;21.016;2022-12-16T16:56:32;-1.70;99.90
17033;DHT22;63208;52.178;21.016;2022-12-16T16:59:18;-1.70;99.90
17033;DHT22;63208;52.178;21.016;2022-12-16T17:02:07;-1.70;99.90
17033;DHT22;63208;52.178;21.016;2022-12-16T17:04:53;-1.70;99.90
17033;DHT22;63208;52.178;21.016;2022-12-16T17:07:37;-1.70;99.90
17033;DHT22;63208;52.178;21.016;2022-12-16T17:10:21;-1.70;99.90
17033;DHT22;63208;52.178;21.016;2022-12-16T17:13:15;-1.70;99.90
17033;DHT22;63208;52.178;21.016;2022-12-16T17:16:00;-1.70;99.90
17033;DHT22;63208;52.178;21.016;2022-12-16T17:18:45;-1.80;99.90
17033;DHT22;63208;52.178;21.016;2022-12-16T17:24:34;-2.60;99.90
17033;DHT22;63208;52.178;21.016;2022-12-16T17:27:19;-1.70;99.90
17033;DHT22;63208;52.178;21.016;2022-12-16T17:30:04;-1.60;99.90
17033;DHT22;63208;52.178;21.016;2022-12-16T17:32:51;-1.70;99.90
17033;DHT22;63208;52.178;21.016;2022-12-16T17:35:35;-1.70;99.90
17033;DHT22;63208;52.178;21.016;2022-12-16T17:38:29;-1.80;99.90
17033;DHT22;63208;52.178;21.016;2022-12-16T17:41:13;-1.70;99.90
17033;DHT22;63208;52.178;21.016;2022-12-16T17:43:57;-1.80;99.90
17033;DHT22;63208;52.178;21.016;2022-12-16T17:46:41;-1.70;99.90
17033;DHT22;63208;52.178;21.016;2022-12-16T17:49:27;-1.80;99.90
17033;DHT22;63208;52.178;21.016;2022-12-16T17:52:11;-1.80;99.90
17033;DHT22;63208;52.178;21.016;2022-12-16T17:57:59;-1.20;99.90
17033;DHT22;63208;52.178;21.016;2022-12-16T18:00:43;-1.70;99.90
17033;DHT22;63208;52.178;21.016;2022-12-16T18:03:27;-1.80;99.90
17033;DHT22;63208;52.178;21.016;2022-12-16T18:06:13;-1.30;99.90
17033;DHT22;63208;52.178;21.016;2022-12-16T18:12:00;-1.80;99.90
17033;DHT22;63208;52.178;21.016;2022-12-16T18:14:45;-0.50;99.90
17033;DHT22;63208;52.178;21.016;2022-12-16T18:17:28;-1.30;99.90
17033;DHT22;63208;52.178;21.016;2022-12-16T18:20:12;-1.80;99.90
17033;DHT22;63208;52.178;21.016;2022-12-16T18:22:58;-1.80;99.90
17033;DHT22;63208;52.178;21.016;2022-12-16T18:25:42;-1.80;99.90
17033;DHT22;63208;52.178;21.016;2022-12-16T18:28:34;-1.20;99.90
17033;DHT22;63208;52.178;21.016;2022-12-16T18:31:18;-1.80;99.90
17033;DHT22;63208;52.178;21.016;2022-12-16T18:34:02;-1.80;99.90
17033;DHT22;63208;52.178;21.016;2022-12-16T18:36:46;-1.80;99.90
17033;DHT22;63208;52.178;21.016;2022-12-16T18:39:37;-1.90;99.90
17033;DHT22;63208;52.178;21.016;2022-12-16T18:51:30;-2.00;99.90
17033;DHT22;63208;52.178;21.016;2022-12-16T18:54:14;-1.80;99.90
17033;DHT22;63208;52.178;21.016;2022-12-16T18:56:59;-1.80;99.90
17033;DHT22;63208;52.178;21.016;2022-12-16T18:59:44;-1.60;99.90
17033;DHT22;63208;52.178;21.016;2022-12-16T19:02:28;-1.70;99.90
17033;DHT22;63208;52.178;21.016;2022-12-16T19:05:13;-1.70;99.90
17033;DHT22;63208;52.178;21.016;2022-12-16T19:07:57;-1.60;99.90
17033;DHT22;63208;52.178;21.016;2022-12-16T19:10:41;-1.60;99.90
17033;DHT22;63208;52.178;21.016;2022-12-16T19:13:27;-1.70;99.90
17033;DHT22;63208;52.178;21.016;2022-12-16T19:16:11;-1.60;99.90
17033;DHT22;63208;52.178;21.016;2022-12-16T19:18:55;-1.60;99.90
17033;DHT22;63208;52.178;21.016;2022-12-16T19:33:57;-2.20;99.90
17033;DHT22;63208;52.178;21.016;2022-12-16T19:36:40;-1.70;99.90
17033;DHT22;63208;52.178;21.016;2022-12-16T19:39:25;-1.60;99.90
17033;DHT22;63208;52.178;21.016;2022-12-16T19:44:49;-1.40;99.90
17033;DHT22;63208;52.178;21.016;2022-12-16T19:48:39;-1.60;99.90
17033;DHT22;63208;52.178;21.016;2022-12-16T19:50:45;-2.20;99.90
17033;DHT22;63208;52.178;21.016;2022-12-16T19:59:36;-2.80;99.90
17033;DHT22;63208;52.178;21.016;2022-12-16T20:02:32;-1.50;99.90
17033;DHT22;63208;52.178;21.016;2022-12-16T20:05:16;-1.10;99.90
17033;DHT22;63208;52.178;21.016;2022-12-16T20:08:02;-1.50;99.90
17033;DHT22;63208;52.178;21.016;2022-12-16T20:13:51;-1.50;99.90
17033;DHT22;63208;52.178;21.016;2022-12-16T20:16:35;-1.50;99.90
17033;DHT22;63208;52.178;21.016;2022-12-16T20:19:19;-1.50;99.90
17033;DHT22;63208;52.178;21.016;2022-12-16T20:22:02;-1.30;99.90
17033;DHT22;63208;52.178;21.016;2022-12-16T20:24:48;-1.40;99.90
17033;DHT22;63208;52.178;21.016;2022-12-16T20:27:32;-1.50;99.90
17033;DHT22;63208;52.178;21.016;2022-12-16T20:30:16;-1.50;99.90
17033;DHT22;63208;52.178;21.016;2022-12-16T20:33:00;-1.60;99.90
